sensor_id;sensor_type;location;lat;lon;timestamp;P1;durP1;ratioP1;P2;durP2;ratioP2
32393;SDS011;18853;45.426;9.206;2022-12-18T00:00:41;63.33;;;34.42;;
32393;SDS011;18853;45.426;9.206;2022-12-18T00:03:08;63.90;;;32.58;;
32393;SDS011;18853;45.426;9.206;2022-12-18T00:05:34;57.13;;;32.58;;
32393;SDS011;18853;45.426;9.206;2022-12-18T00:08:00;65.18;;;31.88;;
32393;SDS011;18853;45.426;9.206;2022-12-18T00:10:26;60.65;;;31.13;;
32393;SDS011;18853;45.426;9.206;2022-12-18T00:12:53;56.63;;;31.95;;
32393;SDS011;18853;45.426;9.206;2022-12-18T00:15:18;65.15;;;32.92;;
32393;SDS011;18853;45.426;9.206;2022-12-18T00:17:44;62.47;;;32.85;;
32393;SDS011;18853;45.426;9.206;2022-12-18T00:20:10;63.97;;;32.60;;
32393;SDS011;18853;45.426;9.206;2022-12-18T00:22:36;64.85;;;33.70;;
32393;SDS011;18853;45.426;9.206;2022-12-18T00:25:02;57.50;;;33.20;;
32393;SDS011;18853;45.426;9.206;2022-12-18T00:27:27;63.72;;;33.97;;
32393;SDS011;18853;45.426;9.206;2022-12-18T00:29:53;83.78;;;36.00;;
32393;SDS011;18853;45.426;9.206;2022-12-18T00:32:19;87.25;;;35.50;;
32393;SDS011;18853;45.426;9.206;2022-12-18T00:34:44;65.15;;;33.42;;
32393;SDS011;18853;45.426;9.206;2022-12-18T00:37:10;67.10;;;34.95;;
32393;SDS011;18853;45.426;9.206;2022-12-18T00:39:36;72.90;;;35.83;;
32393;SDS011;18853;45.426;9.206;2022-12-18T00:42:01;72.85;;;37.20;;
32393;SDS011;18853;45.426;9.206;2022-12-18T00:44:45;77.75;;;35.72;;
32393;SDS011;18853;45.426;9.206;2022-12-18T00:47:11;63.38;;;33.85;;
32393;SDS011;18853;45.426;9.206;2022-12-18T00:49:37;62.70;;;33.10;;
32393;SDS011;18853;45.426;9.206;2022-12-18T00:52:02;68.97;;;34.10;;
32393;SDS011;18853;45.426;9.206;2022-12-18T00:54:28;65.13;;;34.88;;
32393;SDS011;18853;45.426;9.206;2022-12-18T00:56:54;63.90;;;35.15;;
32393;SDS011;18853;45.426;9.206;2022-12-18T00:59:20;59.30;;;33.65;;
32393;SDS011;18853;45.426;9.206;2022-12-18T01:01:46;66.28;;;34.58;;
32393;SDS011;18853;45.426;9.206;2022-12-18T01:04:12;63.38;;;34.10;;
32393;SDS011;18853;45.426;9.206;2022-12-18T01:06:38;71.90;;;38.47;;
32393;SDS011;18853;45.426;9.206;2022-12-18T01:09:03;68.03;;;37.58;;
32393;SDS011;18853;45.426;9.206;2022-12-18T01:11:29;65.93;;;38.00;;
32393;SDS011;18853;45.426;9.206;2022-12-18T01:13:55;68.88;;;37.22;;
32393;SDS011;18853;45.426;9.206;2022-12-18T01:16:21;68.40;;;37.63;;
32393;SDS011;18853;45.426;9.206;2022-12-18T01:18:50;66.53;;;35.95;;
32393;SDS011;18853;45.426;9.206;2022-12-18T01:21:16;64.80;;;35.13;;
32393;SDS011;18853;45.426;9.206;2022-12-18T01:23:45;68.38;;;37.67;;
32393;SDS011;18853;45.426;9.206;2022-12-18T01:26:12;61.45;;;37.03;;
32393;SDS011;18853;45.426;9.206;2022-12-18T01:28:39;64.60;;;35.63;;
32393;SDS011;18853;45.426;9.206;2022-12-18T01:31:12;64.57;;;37.38;;
32393;SDS011;18853;45.426;9.206;2022-12-18T01:33:45;68.30;;;38.00;;
32393;SDS011;18853;45.426;9.206;2022-12-18T01:36:15;63.85;;;37.33;;
32393;SDS011;18853;45.426;9.206;2022-12-18T01:38:42;68.25;;;37.58;;
32393;SDS011;18853;45.426;9.206;2022-12-18T01:41:08;69.05;;;38.38;;
32393;SDS011;18853;45.426;9.206;2022-12-18T01:49:01;63.22;;;37.47;;
32393;SDS011;18853;45.426;9.206;2022-12-18T01:51:27;63.25;;;35.85;;
32393;SDS011;18853;45.426;9.206;2022-12-18T01:53:54;59.08;;;35.72;;
32393;SDS011;18853;45.426;9.206;2022-12-18T01:56:21;59.45;;;34.83;;
32393;SDS011;18853;45.426;9.206;2022-12-18T01:59:03;61.75;;;36.00;;
32393;SDS011;18853;45.426;9.206;2022-12-18T02:01:32;56.60;;;34.85;;
32393;SDS011;18853;45.426;9.206;2022-12-18T02:06:48;62.58;;;36.40;;
32393;SDS011;18853;45.426;9.206;2022-12-18T02:09:35;63.33;;;38.13;;
32393;SDS011;18853;45.426;9.206;2022-12-18T02:12:16;64.28;;;36.60;;
32393;SDS011;18853;45.426;9.206;2022-12-18T02:14:44;62.30;;;38.15;;
32393;SDS011;18853;45.426;9.206;2022-12-18T02:17:45;68.03;;;38.85;;
32393;SDS011;18853;45.426;9.206;2022-12-18T02:25:41;65.30;;;37.53;;
32393;SDS011;18853;45.426;9.206;2022-12-18T02:28:28;63.75;;;37.47;;
32393;SDS011;18853;45.426;9.206;2022-12-18T02:30:58;60.95;;;36.88;;
32393;SDS011;18853;45.426;9.206;2022-12-18T02:33:27;67.40;;;38.53;;
32393;SDS011;18853;45.426;9.206;2022-12-18T02:35:54;67.85;;;36.47;;
32393;SDS011;18853;45.426;9.206;2022-12-18T02:38:22;70.22;;;37.97;;
32393;SDS011;18853;45.426;9.206;2022-12-18T02:40:50;77.95;;;39.28;;
32393;SDS011;18853;45.426;9.206;2022-12-18T02:43:18;67.13;;;37.83;;
32393;SDS011;18853;45.426;9.206;2022-12-18T02:46:20;63.08;;;37.60;;
32393;SDS011;18853;45.426;9.206;2022-12-18T02:48:59;64.38;;;37.47;;
32393;SDS011;18853;45.426;9.206;2022-12-18T02:51:48;64.45;;;37.67;;
32393;SDS011;18853;45.426;9.206;2022-12-18T02:54:21;72.18;;;37.20;;
32393;SDS011;18853;45.426;9.206;2022-12-18T02:57:33;63.63;;;37.92;;
32393;SDS011;18853;45.426;9.206;2022-12-18T03:00:08;62.90;;;36.28;;
32393;SDS011;18853;45.426;9.206;2022-12-18T03:05:20;67.72;;;38.47;;
32393;SDS011;18853;45.426;9.206;2022-12-18T03:10:25;62.97;;;36.40;;
32393;SDS011;18853;45.426;9.206;2022-12-18T03:12:56;64.95;;;37.47;;
32393;SDS011;18853;45.426;9.206;2022-12-18T03:15:48;63.55;;;37.55;;
32393;SDS011;18853;45.426;9.206;2022-12-18T03:18:21;63.40;;;36.13;;
32393;SDS011;18853;45.426;9.206;2022-12-18T03:21:02;65.15;;;36.85;;
32393;SDS011;18853;45.426;9.206;2022-12-18T03:23:32;62.33;;;35.70;;
32393;SDS011;18853;45.426;9.206;2022-12-18T03:26:04;62.03;;;35.20;;
32393;SDS011;18853;45.426;9.206;2022-12-18T03:28:34;63.90;;;36.35;;
32393;SDS011;18853;45.426;9.206;2022-12-18T03:31:04;63.92;;;36.90;;
32393;SDS011;18853;45.426;9.206;2022-12-18T03:33:35;66.50;;;35.47;;
32393;SDS011;18853;45.426;9.206;2022-12-18T03:36:05;60.47;;;36.70;;
32393;SDS011;18853;45.426;9.206;2022-12-18T03:38:31;65.22;;;36.53;;
32393;SDS011;18853;45.426;9.206;2022-12-18T03:49:09;59.80;;;36.47;;
32393;SDS011;18853;45.426;9.206;2022-12-18T03:51:39;65.40;;;38.00;;
32393;SDS011;18853;45.426;9.206;2022-12-18T03:54:12;62.45;;;36.47;;
32393;SDS011;18853;45.426;9.206;2022-12-18T03:56:40;61.53;;;35.90;;
32393;SDS011;18853;45.426;9.206;2022-12-18T03:59:11;61.75;;;36.00;;
32393;SDS011;18853;45.426;9.206;2022-12-18T04:01:39;66.32;;;37.60;;
32393;SDS011;18853;45.426;9.206;2022-12-18T04:04:10;79.03;;;35.50;;
32393;SDS011;18853;45.426;9.206;2022-12-18T04:06:39;61.58;;;34.90;;
32393;SDS011;18853;45.426;9.206;2022-12-18T04:09:07;63.20;;;36.35;;
32393;SDS011;18853;45.426;9.206;2022-12-18T04:11:33;62.00;;;35.72;;
32393;SDS011;18853;45.426;9.206;2022-12-18T04:13:58;57.72;;;35.15;;
32393;SDS011;18853;45.426;9.206;2022-12-18T04:16:25;60.65;;;36.55;;
32393;SDS011;18853;45.426;9.206;2022-12-18T04:18:51;63.30;;;36.53;;
32393;SDS011;18853;45.426;9.206;2022-12-18T04:21:17;67.90;;;38.13;;
32393;SDS011;18853;45.426;9.206;2022-12-18T04:23:44;65.65;;;38.75;;
32393;SDS011;18853;45.426;9.206;2022-12-18T04:26:10;66.55;;;38.83;;
32393;SDS011;18853;45.426;9.206;2022-12-18T04:28:35;65.82;;;37.83;;
32393;SDS011;18853;45.426;9.206;2022-12-18T04:31:01;72.68;;;38.92;;
32393;SDS011;18853;45.426;9.206;2022-12-18T04:33:27;67.32;;;38.45;;
32393;SDS011;18853;45.426;9.206;2022-12-18T04:35:53;72.07;;;39.53;;
32393;SDS011;18853;45.426;9.206;2022-12-18T04:38:19;71.35;;;38.78;;
32393;SDS011;18853;45.426;9.206;2022-12-18T04:40:44;76.22;;;38.53;;
32393;SDS011;18853;45.426;9.206;2022-12-18T04:43:10;80.15;;;39.10;;
32393;SDS011;18853;45.426;9.206;2022-12-18T04:45:36;63.88;;;38.28;;
32393;SDS011;18853;45.426;9.206;2022-12-18T04:48:02;67.53;;;38.45;;
32393;SDS011;18853;45.426;9.206;2022-12-18T04:50:29;65.22;;;36.60;;
32393;SDS011;18853;45.426;9.206;2022-12-18T04:52:55;71.90;;;38.22;;
32393;SDS011;18853;45.426;9.206;2022-12-18T04:55:21;73.82;;;39.03;;
32393;SDS011;18853;45.426;9.206;2022-12-18T04:57:46;73.03;;;38.05;;
32393;SDS011;18853;45.426;9.206;2022-12-18T05:00:12;70.28;;;38.30;;
32393;SDS011;18853;45.426;9.206;2022-12-18T05:02:38;72.15;;;37.97;;
32393;SDS011;18853;45.426;9.206;2022-12-18T05:05:04;72.70;;;38.22;;
32393;SDS011;18853;45.426;9.206;2022-12-18T05:07:30;75.43;;;38.90;;
32393;SDS011;18853;45.426;9.206;2022-12-18T05:09:56;76.25;;;41.45;;
32393;SDS011;18853;45.426;9.206;2022-12-18T05:12:21;90.70;;;38.88;;
32393;SDS011;18853;45.426;9.206;2022-12-18T05:14:47;80.25;;;38.70;;
32393;SDS011;18853;45.426;9.206;2022-12-18T05:17:13;86.10;;;38.53;;
32393;SDS011;18853;45.426;9.206;2022-12-18T05:19:38;83.32;;;39.45;;
32393;SDS011;18853;45.426;9.206;2022-12-18T05:22:04;88.68;;;40.35;;
32393;SDS011;18853;45.426;9.206;2022-12-18T05:24:30;83.45;;;40.13;;
32393;SDS011;18853;45.426;9.206;2022-12-18T05:26:55;82.28;;;38.60;;
32393;SDS011;18853;45.426;9.206;2022-12-18T05:29:21;86.28;;;40.97;;
32393;SDS011;18853;45.426;9.206;2022-12-18T05:31:47;96.40;;;41.63;;
32393;SDS011;18853;45.426;9.206;2022-12-18T05:34:12;88.80;;;41.28;;
32393;SDS011;18853;45.426;9.206;2022-12-18T05:36:38;91.93;;;41.65;;
32393;SDS011;18853;45.426;9.206;2022-12-18T05:39:04;90.35;;;43.03;;
32393;SDS011;18853;45.426;9.206;2022-12-18T05:41:29;90.57;;;41.75;;
32393;SDS011;18853;45.426;9.206;2022-12-18T05:43:55;119.63;;;42.30;;
32393;SDS011;18853;45.426;9.206;2022-12-18T05:46:21;96.40;;;44.45;;
32393;SDS011;18853;45.426;9.206;2022-12-18T05:48:47;89.28;;;40.92;;
32393;SDS011;18853;45.426;9.206;2022-12-18T05:51:14;95.63;;;42.60;;
32393;SDS011;18853;45.426;9.206;2022-12-18T05:53:41;95.43;;;42.05;;
32393;SDS011;18853;45.426;9.206;2022-12-18T05:56:10;97.07;;;40.05;;
32393;SDS011;18853;45.426;9.206;2022-12-18T05:58:37;91.18;;;39.72;;
32393;SDS011;18853;45.426;9.206;2022-12-18T06:01:07;94.30;;;41.30;;
32393;SDS011;18853;45.426;9.206;2022-12-18T06:03:33;91.10;;;40.28;;
32393;SDS011;18853;45.426;9.206;2022-12-18T06:05:59;92.50;;;41.38;;
32393;SDS011;18853;45.426;9.206;2022-12-18T06:08:24;93.28;;;40.53;;
32393;SDS011;18853;45.426;9.206;2022-12-18T06:10:50;96.35;;;41.67;;
32393;SDS011;18853;45.426;9.206;2022-12-18T06:13:17;102.22;;;42.47;;
32393;SDS011;18853;45.426;9.206;2022-12-18T06:15:44;95.50;;;39.88;;
32393;SDS011;18853;45.426;9.206;2022-12-18T06:18:10;95.18;;;40.75;;
32393;SDS011;18853;45.426;9.206;2022-12-18T06:20:35;92.43;;;40.38;;
32393;SDS011;18853;45.426;9.206;2022-12-18T06:23:02;111.88;;;40.08;;
32393;SDS011;18853;45.426;9.206;2022-12-18T06:25:28;92.88;;;40.80;;
32393;SDS011;18853;45.426;9.206;2022-12-18T06:27:54;91.07;;;39.92;;
32393;SDS011;18853;45.426;9.206;2022-12-18T06:30:19;91.30;;;40.10;;
32393;SDS011;18853;45.426;9.206;2022-12-18T06:32:45;99.82;;;39.53;;
32393;SDS011;18853;45.426;9.206;2022-12-18T06:35:12;95.13;;;38.90;;
32393;SDS011;18853;45.426;9.206;2022-12-18T06:37:38;95.05;;;39.28;;
32393;SDS011;18853;45.426;9.206;2022-12-18T06:40:04;103.18;;;40.20;;
32393;SDS011;18853;45.426;9.206;2022-12-18T06:42:30;87.47;;;36.17;;
32393;SDS011;18853;45.426;9.206;2022-12-18T06:44:56;88.25;;;39.00;;
32393;SDS011;18853;45.426;9.206;2022-12-18T06:47:22;101.65;;;36.20;;
32393;SDS011;18853;45.426;9.206;2022-12-18T06:49:48;87.53;;;35.72;;
32393;SDS011;18853;45.426;9.206;2022-12-18T06:52:14;87.95;;;37.67;;
32393;SDS011;18853;45.426;9.206;2022-12-18T06:54:39;80.93;;;36.78;;
32393;SDS011;18853;45.426;9.206;2022-12-18T06:57:05;79.07;;;35.63;;
32393;SDS011;18853;45.426;9.206;2022-12-18T06:59:31;88.97;;;35.80;;
32393;SDS011;18853;45.426;9.206;2022-12-18T07:01:56;89.97;;;35.30;;
32393;SDS011;18853;45.426;9.206;2022-12-18T07:04:24;76.32;;;35.13;;
32393;SDS011;18853;45.426;9.206;2022-12-18T07:06:53;81.32;;;34.92;;
32393;SDS011;18853;45.426;9.206;2022-12-18T07:09:19;72.75;;;33.33;;
32393;SDS011;18853;45.426;9.206;2022-12-18T07:11:44;72.70;;;34.90;;
32393;SDS011;18853;45.426;9.206;2022-12-18T07:14:10;91.65;;;33.72;;
32393;SDS011;18853;45.426;9.206;2022-12-18T07:16:36;72.53;;;34.85;;
32393;SDS011;18853;45.426;9.206;2022-12-18T07:19:01;70.75;;;35.15;;
32393;SDS011;18853;45.426;9.206;2022-12-18T07:21:27;70.25;;;34.60;;
32393;SDS011;18853;45.426;9.206;2022-12-18T07:23:53;74.15;;;34.58;;
32393;SDS011;18853;45.426;9.206;2022-12-18T07:26:19;67.47;;;34.75;;
32393;SDS011;18853;45.426;9.206;2022-12-18T07:28:46;68.20;;;34.35;;
32393;SDS011;18853;45.426;9.206;2022-12-18T07:31:13;68.80;;;33.65;;
32393;SDS011;18853;45.426;9.206;2022-12-18T07:33:41;85.43;;;33.45;;
32393;SDS011;18853;45.426;9.206;2022-12-18T07:36:07;65.80;;;34.80;;
32393;SDS011;18853;45.426;9.206;2022-12-18T07:38:34;70.68;;;35.20;;
32393;SDS011;18853;45.426;9.206;2022-12-18T07:41:18;84.47;;;37.35;;
32393;SDS011;18853;45.426;9.206;2022-12-18T07:43:45;65.78;;;33.20;;
32393;SDS011;18853;45.426;9.206;2022-12-18T07:46:11;65.88;;;35.42;;
32393;SDS011;18853;45.426;9.206;2022-12-18T07:48:42;82.38;;;36.28;;
32393;SDS011;18853;45.426;9.206;2022-12-18T07:51:09;69.15;;;36.35;;
32393;SDS011;18853;45.426;9.206;2022-12-18T07:53:35;65.32;;;34.63;;
32393;SDS011;18853;45.426;9.206;2022-12-18T07:56:03;63.67;;;34.80;;
32393;SDS011;18853;45.426;9.206;2022-12-18T07:58:33;67.38;;;35.53;;
32393;SDS011;18853;45.426;9.206;2022-12-18T08:01:06;65.18;;;33.92;;
32393;SDS011;18853;45.426;9.206;2022-12-18T08:03:33;66.25;;;35.05;;
32393;SDS011;18853;45.426;9.206;2022-12-18T08:06:03;72.03;;;35.53;;
32393;SDS011;18853;45.426;9.206;2022-12-18T08:08:31;71.25;;;35.72;;
32393;SDS011;18853;45.426;9.206;2022-12-18T08:10:57;71.22;;;35.65;;
32393;SDS011;18853;45.426;9.206;2022-12-18T08:13:23;68.28;;;35.97;;
32393;SDS011;18853;45.426;9.206;2022-12-18T08:16:00;70.88;;;34.85;;
32393;SDS011;18853;45.426;9.206;2022-12-18T08:18:28;69.00;;;35.45;;
32393;SDS011;18853;45.426;9.206;2022-12-18T08:20:54;70.18;;;36.80;;
32393;SDS011;18853;45.426;9.206;2022-12-18T08:23:20;77.75;;;35.70;;
32393;SDS011;18853;45.426;9.206;2022-12-18T08:25:47;69.72;;;35.88;;
32393;SDS011;18853;45.426;9.206;2022-12-18T08:28:12;73.03;;;37.47;;
32393;SDS011;18853;45.426;9.206;2022-12-18T08:30:38;72.63;;;37.03;;
32393;SDS011;18853;45.426;9.206;2022-12-18T08:33:05;73.60;;;37.25;;
32393;SDS011;18853;45.426;9.206;2022-12-18T08:35:34;72.03;;;36.97;;
32393;SDS011;18853;45.426;9.206;2022-12-18T08:38:01;72.28;;;37.15;;
32393;SDS011;18853;45.426;9.206;2022-12-18T08:40:28;68.95;;;36.60;;
32393;SDS011;18853;45.426;9.206;2022-12-18T08:42:54;71.05;;;36.22;;
32393;SDS011;18853;45.426;9.206;2022-12-18T08:45:38;72.57;;;36.80;;
32393;SDS011;18853;45.426;9.206;2022-12-18T08:48:04;70.75;;;36.53;;
32393;SDS011;18853;45.426;9.206;2022-12-18T08:50:30;73.72;;;37.72;;
32393;SDS011;18853;45.426;9.206;2022-12-18T08:52:55;67.55;;;34.88;;
32393;SDS011;18853;45.426;9.206;2022-12-18T08:55:21;68.78;;;36.38;;
32393;SDS011;18853;45.426;9.206;2022-12-18T08:57:50;68.47;;;37.53;;
32393;SDS011;18853;45.426;9.206;2022-12-18T09:00:16;66.85;;;35.90;;
32393;SDS011;18853;45.426;9.206;2022-12-18T09:02:42;66.05;;;35.38;;
32393;SDS011;18853;45.426;9.206;2022-12-18T09:05:07;59.75;;;34.22;;
32393;SDS011;18853;45.426;9.206;2022-12-18T09:07:33;59.88;;;34.08;;
32393;SDS011;18853;45.426;9.206;2022-12-18T09:09:59;55.80;;;30.25;;
32393;SDS011;18853;45.426;9.206;2022-12-18T09:12:25;52.13;;;31.45;;
32393;SDS011;18853;45.426;9.206;2022-12-18T09:14:51;58.53;;;32.42;;
32393;SDS011;18853;45.426;9.206;2022-12-18T09:17:16;59.92;;;31.80;;
32393;SDS011;18853;45.426;9.206;2022-12-18T09:19:42;63.80;;;32.70;;
32393;SDS011;18853;45.426;9.206;2022-12-18T09:22:08;62.08;;;32.88;;
32393;SDS011;18853;45.426;9.206;2022-12-18T09:24:34;65.07;;;33.03;;
32393;SDS011;18853;45.426;9.206;2022-12-18T09:27:00;69.45;;;35.17;;
32393;SDS011;18853;45.426;9.206;2022-12-18T09:29:26;74.55;;;35.58;;
32393;SDS011;18853;45.426;9.206;2022-12-18T09:31:52;73.40;;;37.22;;
32393;SDS011;18853;45.426;9.206;2022-12-18T09:34:17;78.72;;;38.03;;
32393;SDS011;18853;45.426;9.206;2022-12-18T09:36:45;81.32;;;39.13;;
32393;SDS011;18853;45.426;9.206;2022-12-18T09:39:11;86.45;;;39.78;;
32393;SDS011;18853;45.426;9.206;2022-12-18T09:41:58;73.10;;;37.00;;
32393;SDS011;18853;45.426;9.206;2022-12-18T09:44:34;75.40;;;37.95;;
32393;SDS011;18853;45.426;9.206;2022-12-18T09:47:14;75.00;;;38.92;;
32393;SDS011;18853;45.426;9.206;2022-12-18T09:49:55;76.00;;;37.10;;
32393;SDS011;18853;45.426;9.206;2022-12-18T09:52:53;72.30;;;37.58;;
32393;SDS011;18853;45.426;9.206;2022-12-18T09:55:34;73.53;;;38.03;;
32393;SDS011;18853;45.426;9.206;2022-12-18T09:58:06;78.80;;;39.38;;
32393;SDS011;18853;45.426;9.206;2022-12-18T10:00:44;74.47;;;38.75;;
32393;SDS011;18853;45.426;9.206;2022-12-18T10:03:11;73.88;;;37.17;;
32393;SDS011;18853;45.426;9.206;2022-12-18T10:11:22;66.72;;;37.10;;
32393;SDS011;18853;45.426;9.206;2022-12-18T10:22:11;67.60;;;36.47;;
32393;SDS011;18853;45.426;9.206;2022-12-18T10:25:17;62.25;;;34.38;;
32393;SDS011;18853;45.426;9.206;2022-12-18T10:27:46;56.65;;;32.10;;
32393;SDS011;18853;45.426;9.206;2022-12-18T10:30:14;58.28;;;32.85;;
32393;SDS011;18853;45.426;9.206;2022-12-18T10:32:42;62.20;;;33.30;;
32393;SDS011;18853;45.426;9.206;2022-12-18T10:35:11;52.15;;;30.33;;
32393;SDS011;18853;45.426;9.206;2022-12-18T10:40:49;56.42;;;31.85;;
32393;SDS011;18853;45.426;9.206;2022-12-18T10:46:39;54.53;;;30.35;;
32393;SDS011;18853;45.426;9.206;2022-12-18T10:49:07;54.05;;;32.70;;
32393;SDS011;18853;45.426;9.206;2022-12-18T10:54:51;52.80;;;29.95;;
32393;SDS011;18853;45.426;9.206;2022-12-18T11:00:01;49.22;;;31.02;;
32393;SDS011;18853;45.426;9.206;2022-12-18T11:02:47;51.25;;;30.70;;
32393;SDS011;18853;45.426;9.206;2022-12-18T11:05:23;52.10;;;30.33;;
32393;SDS011;18853;45.426;9.206;2022-12-18T11:07:57;52.67;;;32.28;;
32393;SDS011;18853;45.426;9.206;2022-12-18T11:10:35;52.40;;;31.45;;
32393;SDS011;18853;45.426;9.206;2022-12-18T11:13:10;58.15;;;33.05;;
32393;SDS011;18853;45.426;9.206;2022-12-18T11:15:36;60.78;;;34.00;;
32393;SDS011;18853;45.426;9.206;2022-12-18T11:18:05;58.97;;;33.97;;
32393;SDS011;18853;45.426;9.206;2022-12-18T11:20:41;60.38;;;32.42;;
32393;SDS011;18853;45.426;9.206;2022-12-18T11:23:10;53.30;;;32.35;;
32393;SDS011;18853;45.426;9.206;2022-12-18T11:25:38;55.15;;;32.40;;
32393;SDS011;18853;45.426;9.206;2022-12-18T11:31:18;53.35;;;31.83;;
32393;SDS011;18853;45.426;9.206;2022-12-18T11:33:57;49.83;;;31.17;;
32393;SDS011;18853;45.426;9.206;2022-12-18T11:36:25;50.95;;;32.58;;
32393;SDS011;18853;45.426;9.206;2022-12-18T11:38:56;52.08;;;32.42;;
32393;SDS011;18853;45.426;9.206;2022-12-18T11:41:34;51.38;;;30.58;;
32393;SDS011;18853;45.426;9.206;2022-12-18T11:44:26;47.03;;;29.65;;
32393;SDS011;18853;45.426;9.206;2022-12-18T11:47:08;50.55;;;29.80;;
32393;SDS011;18853;45.426;9.206;2022-12-18T11:49:55;44.25;;;28.80;;
32393;SDS011;18853;45.426;9.206;2022-12-18T11:52:26;44.47;;;28.25;;
32393;SDS011;18853;45.426;9.206;2022-12-18T11:55:01;41.33;;;27.63;;
32393;SDS011;18853;45.426;9.206;2022-12-18T11:57:41;44.47;;;29.13;;
32393;SDS011;18853;45.426;9.206;2022-12-18T12:00:19;42.65;;;27.80;;
32393;SDS011;18853;45.426;9.206;2022-12-18T12:40:17;40.90;;;28.40;;
32393;SDS011;18853;45.426;9.206;2022-12-18T12:42:45;40.58;;;27.20;;
32393;SDS011;18853;45.426;9.206;2022-12-18T12:45:37;41.53;;;28.25;;
32393;SDS011;18853;45.426;9.206;2022-12-18T12:48:10;44.85;;;29.30;;
32393;SDS011;18853;45.426;9.206;2022-12-18T12:51:00;45.08;;;29.33;;
32393;SDS011;18853;45.426;9.206;2022-12-18T12:53:32;47.13;;;30.20;;
32393;SDS011;18853;45.426;9.206;2022-12-18T12:56:01;46.92;;;30.85;;
32393;SDS011;18853;45.426;9.206;2022-12-18T13:06:28;48.58;;;31.42;;
32393;SDS011;18853;45.426;9.206;2022-12-18T13:09:03;49.50;;;31.55;;
32393;SDS011;18853;45.426;9.206;2022-12-18T13:14:22;47.17;;;31.25;;
32393;SDS011;18853;45.426;9.206;2022-12-18T13:16:51;48.45;;;32.30;;
32393;SDS011;18853;45.426;9.206;2022-12-18T13:19:23;46.80;;;31.40;;
32393;SDS011;18853;45.426;9.206;2022-12-18T13:21:56;47.20;;;31.92;;
32393;SDS011;18853;45.426;9.206;2022-12-18T13:24:26;53.25;;;34.63;;
32393;SDS011;18853;45.426;9.206;2022-12-18T13:26:55;59.28;;;37.42;;
32393;SDS011;18853;45.426;9.206;2022-12-18T13:29:40;59.95;;;37.58;;
32393;SDS011;18853;45.426;9.206;2022-12-18T13:32:20;61.58;;;39.95;;
32393;SDS011;18853;45.426;9.206;2022-12-18T13:34:48;63.90;;;39.22;;
32393;SDS011;18853;45.426;9.206;2022-12-18T13:37:41;57.90;;;36.78;;
32393;SDS011;18853;45.426;9.206;2022-12-18T13:40:53;57.92;;;36.72;;
32393;SDS011;18853;45.426;9.206;2022-12-18T13:43:32;57.42;;;37.42;;
32393;SDS011;18853;45.426;9.206;2022-12-18T13:48:49;61.45;;;38.15;;
32393;SDS011;18853;45.426;9.206;2022-12-18T13:51:17;59.97;;;38.35;;
32393;SDS011;18853;45.426;9.206;2022-12-18T13:53:49;60.20;;;39.38;;
32393;SDS011;18853;45.426;9.206;2022-12-18T13:56:16;62.30;;;40.58;;
32393;SDS011;18853;45.426;9.206;2022-12-18T14:01:43;68.68;;;43.38;;
32393;SDS011;18853;45.426;9.206;2022-12-18T14:04:35;70.93;;;45.33;;
32393;SDS011;18853;45.426;9.206;2022-12-18T14:09:29;70.85;;;44.08;;
32393;SDS011;18853;45.426;9.206;2022-12-18T14:11:59;68.90;;;43.42;;
32393;SDS011;18853;45.426;9.206;2022-12-18T14:14:45;70.43;;;44.17;;
32393;SDS011;18853;45.426;9.206;2022-12-18T14:17:12;69.93;;;44.10;;
32393;SDS011;18853;45.426;9.206;2022-12-18T14:19:43;70.03;;;43.85;;
32393;SDS011;18853;45.426;9.206;2022-12-18T14:22:15;62.10;;;39.83;;
32393;SDS011;18853;45.426;9.206;2022-12-18T14:24:46;58.25;;;38.13;;
32393;SDS011;18853;45.426;9.206;2022-12-18T14:27:23;58.42;;;38.00;;
32393;SDS011;18853;45.426;9.206;2022-12-18T14:29:50;58.78;;;38.13;;
32393;SDS011;18853;45.426;9.206;2022-12-18T14:32:17;57.75;;;37.47;;
32393;SDS011;18853;45.426;9.206;2022-12-18T14:34:53;53.53;;;36.08;;
32393;SDS011;18853;45.426;9.206;2022-12-18T14:37:21;50.45;;;34.10;;
32393;SDS011;18853;45.426;9.206;2022-12-18T14:39:52;50.42;;;34.22;;
32393;SDS011;18853;45.426;9.206;2022-12-18T14:42:23;49.00;;;33.33;;
32393;SDS011;18853;45.426;9.206;2022-12-18T14:45:17;50.30;;;33.25;;
32393;SDS011;18853;45.426;9.206;2022-12-18T14:47:57;48.90;;;32.85;;
32393;SDS011;18853;45.426;9.206;2022-12-18T14:50:23;49.08;;;34.08;;
32393;SDS011;18853;45.426;9.206;2022-12-18T14:52:49;46.15;;;32.25;;
32393;SDS011;18853;45.426;9.206;2022-12-18T14:55:19;54.75;;;34.30;;
32393;SDS011;18853;45.426;9.206;2022-12-18T14:57:45;55.67;;;35.55;;
32393;SDS011;18853;45.426;9.206;2022-12-18T15:00:17;49.70;;;33.53;;
32393;SDS011;18853;45.426;9.206;2022-12-18T15:02:52;49.42;;;34.15;;
32393;SDS011;18853;45.426;9.206;2022-12-18T15:05:20;48.35;;;33.00;;
32393;SDS011;18853;45.426;9.206;2022-12-18T15:07:52;51.05;;;34.63;;
32393;SDS011;18853;45.426;9.206;2022-12-18T15:23:22;49.08;;;35.15;;
32393;SDS011;18853;45.426;9.206;2022-12-18T15:26:01;53.97;;;35.95;;
32393;SDS011;18853;45.426;9.206;2022-12-18T15:33:38;62.25;;;40.42;;
32393;SDS011;18853;45.426;9.206;2022-12-18T15:36:12;59.38;;;39.40;;
32393;SDS011;18853;45.426;9.206;2022-12-18T15:38:39;63.22;;;41.03;;
32393;SDS011;18853;45.426;9.206;2022-12-18T15:41:28;60.25;;;39.80;;
32393;SDS011;18853;45.426;9.206;2022-12-18T15:43:52;70.00;;;43.65;;
32393;SDS011;18853;45.426;9.206;2022-12-18T15:48:47;79.32;;;47.25;;
32393;SDS011;18853;45.426;9.206;2022-12-18T15:51:18;75.65;;;47.17;;
32393;SDS011;18853;45.426;9.206;2022-12-18T15:53:46;73.95;;;46.42;;
32393;SDS011;18853;45.426;9.206;2022-12-18T15:56:13;77.05;;;47.28;;
32393;SDS011;18853;45.426;9.206;2022-12-18T15:58:59;75.75;;;46.22;;
32393;SDS011;18853;45.426;9.206;2022-12-18T16:01:26;70.47;;;44.60;;
32393;SDS011;18853;45.426;9.206;2022-12-18T16:03:53;70.57;;;44.80;;
32393;SDS011;18853;45.426;9.206;2022-12-18T16:06:20;69.93;;;44.67;;
32393;SDS011;18853;45.426;9.206;2022-12-18T16:08:46;68.60;;;43.60;;
32393;SDS011;18853;45.426;9.206;2022-12-18T16:11:28;66.72;;;42.97;;
32393;SDS011;18853;45.426;9.206;2022-12-18T16:16:40;64.68;;;40.88;;
32393;SDS011;18853;45.426;9.206;2022-12-18T16:19:06;64.45;;;42.08;;
32393;SDS011;18853;45.426;9.206;2022-12-18T16:21:32;66.13;;;42.83;;
32393;SDS011;18853;45.426;9.206;2022-12-18T16:23:58;63.38;;;40.80;;
32393;SDS011;18853;45.426;9.206;2022-12-18T16:26:24;64.30;;;41.10;;
32393;SDS011;18853;45.426;9.206;2022-12-18T16:28:49;71.00;;;43.00;;
32393;SDS011;18853;45.426;9.206;2022-12-18T16:31:15;66.93;;;43.30;;
32393;SDS011;18853;45.426;9.206;2022-12-18T16:33:41;67.57;;;41.65;;
32393;SDS011;18853;45.426;9.206;2022-12-18T16:36:06;74.50;;;44.72;;
32393;SDS011;18853;45.426;9.206;2022-12-18T16:38:32;73.63;;;44.53;;
32393;SDS011;18853;45.426;9.206;2022-12-18T16:40:58;74.88;;;45.60;;
32393;SDS011;18853;45.426;9.206;2022-12-18T16:43:42;77.32;;;45.10;;
32393;SDS011;18853;45.426;9.206;2022-12-18T16:46:08;73.20;;;45.42;;
32393;SDS011;18853;45.426;9.206;2022-12-18T16:48:34;70.25;;;44.33;;
32393;SDS011;18853;45.426;9.206;2022-12-18T16:51:00;75.60;;;45.90;;
32393;SDS011;18853;45.426;9.206;2022-12-18T16:53:27;71.00;;;44.75;;